Latest Coastal Weather Observations for Groote Eylandt Airport

IDD60701

Issued at 5:05 am CST Wednesday 17 September 2014 (issued every 10 minutes, with the page automatically refreshed every 10 minutes)

About coastal observations | Map of coastal stations | Coastal observations for NT | Marine services | Other Formats
Station Details ID: 014518 Name: GROOTE EYLANDT AIRPORT Lat: -13.97 Lon: 136.46 Height: 13.7 m
Data from the previous 72 hours. | See also: Recent months at Groote Eylandt Airport
Date/Time
CST
Temp

°C
Wind Pressure Rain
since 9am
mm
Weather Cloud Vis
km
Sea
Height
m
Swell
Dir
 
Speed
knots
Gust
knots
hPa Trend Height
m
Period
s
Dir
17/05:00am 15.9 ESE 0 0 1012.2 - - - - - - - - -
17/04:30am 16.4 CALM 0 0 1012.0 - - - - - - - - -
17/04:00am 16.9 CALM 0 0 1011.9 - - - - - - - - -
17/03:30am 17.1 CALM 0 0 1011.9 - - - - - - - - -
17/03:00am 17.2 CALM 0 0 1012.0 - 0.0 - - - - - - -
17/02:30am 17.5 ESE 2 4 1012.2 - - - - - - - - -
17/02:00am 17.7 E 2 4 1012.3 - - - - - - - - -
17/01:30am 18.3 ESE 3 4 1012.6 - - - - - - - - -
17/01:00am 18.7 E 3 4 1012.7 - - - - - - - - -
17/12:30am 18.9 ESE 3 4 1013.1 - - - - 10 - - - -
17/12:00am 19.1 ESE 0 0 1013.5 - - - - 10 - - - -
 
Date/Time
CST
Temp

°C
Wind Pressure Rain
since 9am
mm
Weather Cloud Vis
km
Sea
Height
m
Swell
Dir
 
Speed
knots
Gust
knots
hPa Trend Height
m
Period
s
Dir
16/11:30pm 19.6 CALM 0 0 1013.6 - - - - 10 - - - -
16/11:00pm 19.6 CALM 0 0 1013.6 - - - - 10 - - - -
16/10:30pm 20.1 CALM 0 0 1013.6 - - - - 10 - - - -
16/10:00pm 21.0 CALM 0 3 1013.7 - - - - 10 - - - -
16/09:30pm 21.8 CALM 0 0 1013.5 - - - - 10 - - - -
16/09:00pm 22.5 CALM 0 0 1013.4 - 0.0 - - 10 - - - -
16/08:30pm 23.0 CALM 0 3 1013.2 - - - - 10 - - - -
16/08:00pm 25.1 NE 2 5 1013.1 - - - - 10 - - - -
16/07:30pm 25.9 NE 4 6 1012.9 - - - - 10 - - - -
16/07:00pm 26.6 NE 4 6 1012.7 - - - - 10 - - - -
16/06:30pm 27.3 ESE 4 6 1012.4 - - - - 10 - - - -
16/06:00pm 28.6 ENE 7 9 1012.2 - - - - 10 - - - -
16/05:30pm 29.7 E 7 11 1011.9 - - - - 10 - - - -
16/05:00pm 30.1 E 11 15 1011.6 - - - - 10 - - - -
16/04:30pm 30.7 E 10 15 1011.4 - - - - 10 - - - -
16/04:00pm 30.9 SE 7 13 1011.1 - - - - 10 - - - -
16/03:30pm 31.0 ESE 9 16 1011.1 - - - - 10 - - - -
16/03:00pm 30.8 E 9 14 1011.3 - - - Mostly clear 10 - - - -
16/02:00pm 32.3 E 11 14 1011.9 - 0.0 - - 10 - - - -
16/01:30pm 30.7 ESE 12 17 1012.4 - 0.0 - - 10 - - - -
16/01:00pm 31.2 E 11 18 1012.8 - 0.0 - - 10 - - - -
16/12:30pm 30.8 E 12 18 1013.3 - 0.0 - - 10 - - - -
16/12:00pm 31.3 ENE 13 20 1013.7 - 0.0 - Mostly clear 10 - - - -
16/11:30am 29.1 E 13 16 1014.0 - 0.0 - Partly cloudy - - - - -
16/11:00am 29.4 ENE 14 22 1014.1 - 0.0 - - - - - - -
16/10:30am 30.8 E 14 20 1014.1 - 0.0 - - - - - - -
16/10:19am 30.8 ENE 15 22 1014.1 - 0.0 - - - - - - -
16/10:00am 29.8 S 3 5 1014.0 - 0.0 - - - - - - -
16/09:30am 28.9 E 3 6 1014.1 - 0.0 - - - - - - -
16/09:00am 27.3 N 2 4 1014.3 - 0.0 - - - - - - -
16/08:30am 25.3 WNW 1 3 1014.1 - 0.0 - - - - - - -
16/08:00am 23.3 CALM 0 0 1013.6 - 0.0 - - - - - - -
16/07:30am 20.4 CALM 0 0 1013.1 - 0.0 - - - - - - -
16/07:00am 17.6 CALM 0 0 1012.9 - 0.0 - Partly cloudy - - - - -
16/06:58am 17.6 CALM 0 0 1012.9 - 0.0 - Partly cloudy - - - - -
16/06:30am 17.1 CALM 0 0 1012.6 - 0.0 - Partly cloudy - - - - -
16/06:01am 16.8 CALM 0 0 1012.1 - 0.0 - Partly cloudy - - - - -
16/06:00am 16.8 CALM 0 0 1012.1 - 0.0 - Partly cloudy - - - - -
16/05:30am 16.8 CALM 0 0 1011.8 - 0.0 - - - - - - -
16/05:00am 16.9 CALM 0 0 1011.4 - 0.0 - - - - - - -
16/04:30am 16.9 E 2 3 1011.3 - 0.0 - Partly cloudy - - - - -
16/04:00am 17.5 CALM 0 0 1011.1 - 0.0 - - - - - - -
16/03:30am 18.3 CALM 0 0 1011.1 - 0.0 - - - - - - -
16/03:00am 18.4 CALM 0 0 1011.2 - 0.0 - - - - - - -
16/02:30am 18.7 E 4 4 1011.3 - 0.0 - - - - - - -
16/02:00am 19.1 E 3 4 1011.7 - 0.0 - - - - - - -
16/01:30am 19.4 E 4 4 1012.0 - 0.0 - - - - - - -
16/01:00am 20.3 E 3 4 1012.2 - 0.0 - - - - - - -
16/12:30am 20.3 E 4 5 1012.1 - 0.0 - - - - - - -
16/12:00am 21.0 E 4 5 1012.3 - 0.0 - - - - - - -
 
Date/Time
CST
Temp

°C
Wind Pressure Rain
since 9am
mm
Weather Cloud Vis
km
Sea
Height
m
Swell
Dir
 
Speed
knots
Gust
knots
hPa Trend Height
m
Period
s
Dir
15/11:30pm 21.2 E 3 4 1012.5 - 0.0 - - - - - - -
15/11:00pm 21.9 E 4 5 1012.8 - 0.0 - - - - - - -
15/10:30pm 22.0 E 4 5 1013.0 - 0.0 - - - - - - -
15/10:00pm 22.3 E 5 6 1013.1 - 0.0 - - - - - - -
15/09:30pm 22.7 E 5 6 1013.2 - 0.0 - - - - - - -
15/09:00pm 22.0 E 5 6 1013.2 - 0.0 - - 10 - - - -
15/08:30pm 22.9 ENE 1 5 1012.9 - 0.0 - - 10 - - - -
15/08:00pm 23.3 E 3 4 1012.8 - 0.0 - - 10 - - - -
15/07:30pm 24.2 E 4 5 1012.5 - 0.0 - - 10 - - - -
15/07:00pm 25.0 CALM 0 2 1012.2 - 0.0 - - 10 - - - -
15/06:30pm 25.8 WSW 2 4 1011.9 - 0.0 - - 10 - - - -
15/06:00pm 26.5 SSW 5 7 1011.7 - 0.0 - Mostly clear 10 - - - -
15/05:30pm 27.1 SW 5 9 1011.7 - 0.0 - Partly cloudy 10 - - - -
15/05:00pm 27.2 SSW 6 10 1011.4 - 0.0 - - 10 - - - -
15/04:30pm 28.2 WSW 6 13 1011.3 - 0.0 - - 10 - - - -
15/04:00pm 28.7 W 6 11 1011.2 - 0.0 - Partly cloudy 10 - - - -
15/03:30pm 27.8 W 8 12 1011.4 - 0.0 - - 10 - - - -
15/03:00pm 27.4 W 7 10 1011.5 - 0.0 - Mostly clear - - - - -
15/02:30pm 27.3 WSW 7 11 1011.8 - 0.0 - Partly cloudy 10 - - - -
15/02:00pm 30.0 W 8 14 1012.1 - 0.0 - Partly cloudy 10 - - - -
15/01:30pm 29.1 WNW 10 14 1012.5 - 0.0 - - 10 - - - -
15/01:00pm 28.1 WNW 10 14 1012.8 - 0.0 - Partly cloudy - - - - -
15/12:30pm 27.5 W 8 13 1013.0 - 0.0 - Partly cloudy - - - - -
15/12:00pm 28.1 W 7 12 1013.4 - 0.0 - Cloudy - - - - -
15/11:30am 29.6 NNE 8 14 1013.8 - 0.0 - Partly cloudy - - - - -
15/11:00am 29.4 NE 6 11 1014.3 - 0.0 - Partly cloudy - - - - -
15/10:30am 29.0 E 8 13 1014.6 - 0.0 - Partly cloudy - - - - -
15/10:00am 27.5 E 4 7 1014.8 - 0.0 - Partly cloudy - - - - -
15/09:30am 25.7 SSE 2 5 1014.9 - 0.0 - - - - - - -
15/09:07am 24.4 SE 3 6 1014.9 - 0.0 - Partly cloudy - - - - -
15/09:00am 23.5 SE 4 5 1014.8 - 0.0 - Partly cloudy - - - - -
15/08:30am 21.7 E 5 6 1014.7 - 0.0 - Cloudy - - - - -
15/08:00am 20.6 ESE 4 5 1014.1 - 0.0 - Cloudy - - - - -
15/07:30am 19.6 E 5 6 1013.6 - 0.0 - Cloudy - - - - -
15/07:00am 18.6 E 4 6 1013.1 - 0.0 - Cloudy - - - - -
15/06:30am 18.5 CALM 0 0 1012.6 - 0.0 - Cloudy - - - - -
15/06:00am 18.3 CALM 0 0 1012.5 - 0.0 - Mostly cloudy - - - - -
15/05:33am 17.8 CALM 0 0 1012.1 - 0.0 - Partly cloudy - - - - -
15/05:30am 17.5 CALM 0 0 1012.1 - 0.0 - Partly cloudy - - - - -
15/05:07am 17.2 CALM 0 0 1011.9 - 0.0 - Cloudy - - - - -
15/05:00am 17.0 CALM 0 0 1011.7 - 0.0 - Cloudy - - - - -
15/04:44am 16.5 ESE 1 3 1011.6 - 0.0 - Partly cloudy - - - - -
15/04:36am 16.4 CALM 0 3 1011.6 - 0.0 - Partly cloudy - - - - -
15/04:30am 16.5 CALM 0 0 1011.5 - 0.0 - Partly cloudy - - - - -
15/04:00am 16.7 CALM 0 0 1011.3 - 0.0 - Partly cloudy - - - - -
15/03:30am 17.2 CALM 0 0 1011.3 - 0.0 - - - - - - -
15/03:00am 17.5 CALM 0 0 1011.6 - 0.0 - - - - - - -
15/02:30am 17.8 CALM 0 0 1011.6 - 0.0 - - - - - - -
15/02:00am 18.2 CALM 0 0 1011.6 - 0.0 - - - - - - -
15/01:30am 18.7 CALM 0 0 1011.9 - 0.0 - - - - - - -
15/01:00am 19.0 CALM 0 0 1012.2 - 0.0 - - - - - - -
15/12:30am 19.4 E 1 3 1012.3 - 0.0 - - - - - - -
15/12:00am 19.4 CALM 0 0 1012.6 - 0.0 - - - - - - -
 
Date/Time
CST
Temp

°C
Wind Pressure Rain
since 9am
mm
Weather Cloud Vis
km
Sea
Height
m
Swell
Dir
 
Speed
knots
Gust
knots
hPa Trend Height
m
Period
s
Dir
14/11:30pm 20.0 E 3 4 1012.9 - 0.0 - - 3 - - - -
14/11:00pm 20.1 E 3 4 1012.9 - 0.0 - - 5 - - - -
14/10:47pm 20.4 E 3 4 1012.8 - 0.0 - - 5 - - - -
14/10:30pm 20.9 ENE 4 4 1012.8 - 0.0 - - 9 - - - -
14/10:00pm 20.9 CALM 0 0 1012.9 - 0.0 - - 9 - - - -
14/09:30pm 21.6 CALM 0 0 1013.0 - 0.0 - - 10 - - - -
14/09:24pm 21.7 CALM 0 0 1013.1 - 0.0 - - 10 - - - -
14/09:00pm 21.9 CALM 0 0 1013.1 - 0.0 - - 1 - - - -
14/08:30pm 22.9 CALM 0 0 1013.0 - 0.0 - - 3 - - - -
14/08:23pm 23.1 ESE 1 4 1012.9 - 0.0 - - 5 - - - -
14/08:00pm 24.2 E 4 5 1012.7 - 0.0 - - 10 - - - -
14/07:30pm 24.8 E 4 5 1012.5 - 0.0 - - 10 - - - -
14/07:00pm 25.4 E 5 7 1012.2 - 0.0 - - 10 - - - -
14/06:30pm 26.1 ENE 6 8 1011.9 - 0.0 - - 10 - - - -
14/06:00pm 26.7 NNW 3 7 1011.9 - 0.0 - - 10 - - - -
14/05:30pm 27.8 NW 7 8 1011.6 - 0.0 - - 10 - - - -
14/05:00pm 28.4 NW 8 10 1011.4 - 0.0 - - 10 - - - -
14/04:30pm 29.3 NNW 6 10 1011.4 - 0.0 - - 10 - - - -
14/04:00pm 29.1 NW 8 11 1011.3 - 0.0 - Partly cloudy 10 - - - -
14/03:30pm 29.8 W 9 13 1011.4 - 0.0 - - 10 - - - -
14/03:00pm 29.3 W 9 12 1011.5 - 0.0 - - 10 - - - -
14/02:30pm 29.1 W 10 15 1011.6 - 0.0 - Partly cloudy 10 - - - -
14/02:00pm 29.0 WSW 8 13 1011.8 - 0.0 - - 10 - - - -
14/01:30pm 29.0 W 9 14 1012.3 - 0.0 - Partly cloudy 10 - - - -
14/01:00pm 28.5 W 8 11 1012.8 - 0.0 - Partly cloudy 10 - - - -
14/12:30pm 29.8 WNW 11 15 1013.3 - 0.0 - Partly cloudy 10 - - - -
14/12:00pm 28.8 WNW 9 13 1013.8 - 0.0 - Mostly clear 10 - - - -
14/11:30am 30.0 ESE 6 10 1014.2 - 0.0 - Partly cloudy 10 - - - -
14/11:00am 29.3 ESE 8 11 1014.6 - 0.0 - - 10 - - - -
14/10:30am 29.4 E 8 13 1015.0 - 0.0 - - 10 - - - -
14/10:00am 28.3 ESE 7 12 1015.3 - 0.0 - - 10 - - - -
14/09:30am 27.2 E 4 8 1015.4 - 0.0 - - 10 - - - -
14/09:01am 25.0 ENE 4 7 1015.4 - 0.0 - Partly cloudy 10 - - - -
14/09:00am 25.1 ENE 4 7 1015.3 - 0.0 - Mostly clear 10 - - - -
14/08:35am 24.2 ENE 10 14 1015.3 - 0.0 - Partly cloudy 10 - - - -
14/08:30am 24.4 S 7 11 1014.5 - 0.0 - Partly cloudy 10 - - - -
14/08:00am 23.2 S 3 7 1014.1 - 0.0 - - 10 - - - -
14/07:30am 20.4 E 3 4 1013.8 - 0.0 - Partly cloudy 10 - - - -
14/07:01am 18.9 SSE 1 3 1013.4 - 0.0 - - 10 - - - -
14/07:00am 18.8 SSE 1 3 1013.4 - 0.0 - - 10 - - - -
14/06:44am 18.7 CALM 0 2 1013.2 - 0.0 - Partly cloudy 2 - - - -
14/06:30am 18.6 E 4 5 1013.1 - 0.0 - Partly cloudy 0.2 - - - -
14/06:00am 19.2 SSE 1 3 1012.9 - 0.0 - Cloudy 0.1 - - - -
14/05:56am 19.0 SSE 1 3 1013.0 - 0.0 - Cloudy 0.1 - - - -
14/05:30am 18.8 SSE 4 7 1012.5 - 0.0 - Cloudy - - - - -

Other Formats:

Comma delimited format used in spreadsheet applications
http://www.bom.gov.au/fwo/IDD60701/IDD60701.94153.axf

JavaScript Object Notation format (JSON) in row-major order
http://www.bom.gov.au/fwo/IDD60701/IDD60701.94153.json